X  Fermer Données météorologiques d'aviation de Metar     EHRD Rotterdam The Hague Airport
Température
23°C Température
13°C Point de rosée
53% Humidité



Vent
3 M/S
6 MPH
10 KM/H
5 KTS



90°
E
Conditions actuelles

Clair Clair
Pression 1007.79 (hPa) - 29.76 (inHg)
Visibilité 6 (mile) - 9.7 (km)
Aéroport
Code de l'aéroport EHRD

Emplacement: Rotterdam The Hague Airport
Distance: 14 (km)

Metar:
EHRD 151625Z AUTO 09005KT 9999 NSC 23/13 Q1008 TEMPO -SHRA FEW070CB

Temps: 15-07-2024 18:25 CEST